Oakton, Virginia
Current Conditions -  °F | °C
As of 3:52 AM on Sunday 26 Oct 2014 (Local Time) from KIAD Reporting Station
Few Clouds Few Clouds  
Wind Chill: 63°   Ceiling: Unl
Heat Index: 63°   Visibility: 10mi
Dew Point: 40°   Wind: 25mph
Humidity: 43%   Direction: 300°WNW
Pressure: 29.7"   Gusts: 35mph
Location:  38.88°N, 77.3°W
Report Text: KIAD 260752Z 30022G30KT 10SM FEW060 17/04 A2970 RMK AO2 PK WND 30030/0751 SLP055 T01720044
Loading
Personal Weather Stations






























Interactive Weather Map
Tropical Storm Tracking
New forecast layout! Learn more

10-Day Weather Forecast

Advertisements
Track Severe Weather on mobile